Impacts TAF Board INFO
FOR SITUATIONAL AWARENESS. NOT TO BE USED FOR FLIGHT PLANNING PURPOSES.
IDs:

KSEA - Seattle-Tacoma Intl, WA, US

Issued at 0329 UTC 13 Dec 2017
Updated at 0334 UTC 13 Dec 2017
Potential Impact None Slight Moderate High
Time<<13/16Z 13/17Z 13/18Z 13/19Z 13/20Z 13/21Z 13/22Z 13/23Z 14/00Z 14/01Z 14/02Z 14/03Z 14/04Z>>
Type PRVL PRVL PRVL PRVL PRVL PRVL PRVL PRVL PRVL PRVL PRVL PRVL PRVL
VIS 0.5 0.5 0.5 0.5 0.5 5 5 >6 >6 >6 >6 >6 >6
CIG 1 1 1 1 1 -- -- -- -- -- -- -- --
Cover BKN BKN BKN BKN BKN SCT SCT SKC SKC SKC SKC SKC SKC
FltCat LIFR LIFR LIFR LIFR LIFR MVFR MVFR VFR VFR VFR VFR VFR VFR
WX FG FG FG FG FG BR BR -- -- -- -- -- --
WDir 30 30 30 30 30 30 30 10 10 10 10 10 10
WSpd 6 6 6 6 6 6 6 6 6 6 6 6 6
WGst -- -- -- -- -- -- -- -- -- -- -- -- --

Raw TAF
KSEA 130329Z 1303/1406 VRB03KT P6SM SCT200
  FM131300 03006KT 1/2SM FG BKN001
  FM132100 03006KT 5SM BR SCT002
  FM132300 01006KT P6SM SKC


METAR Board
Radar Display
Forecast Discussion

FOR SITUATIONAL AWARENESS. NOT TO BE USED FOR FLIGHT PLANNING PURPOSES.